Alameda, New Mexico
Current Conditions -  °F | °C
As of 11:35 PM on Friday 19 Dec 2014 (Local Time) from KAEG Reporting Station
Clear Clear  
Wind Chill: -8°   Ceiling: Unl
Heat Index: -4°   Visibility: 10mi
Dew Point: -6°   Wind: 7mph
Humidity: 84%   Direction: 270°W
Pressure: 30.2"   Gusts: NA
Location:  35.1991°N, 106.662°W
Report Text: KAEG 200635Z AUTO 27006KT 10SM CLR M04/M06 A3020 RMK AO2 T10371061
Loading
Personal Weather Stations






























Interactive Weather Map New forecast layout! Learn more

10-Day Weather Forecast

Advertisements
Track Severe Weather on mobile